createdAt,value
2023-04-17T00:01:40.905Z,2.40
2023-04-17T00:04:11.024Z,1.85
2023-04-17T00:06:38.548Z,2.03
2023-04-17T00:09:06.039Z,1.92
2023-04-17T00:11:32.791Z,1.52
2023-04-17T00:13:59.655Z,2.00
2023-04-17T00:16:27.142Z,3.05
2023-04-17T00:18:54.943Z,1.65
2023-04-17T00:21:21.884Z,2.10
2023-04-17T00:23:49.588Z,2.63
2023-04-17T00:26:16.577Z,3.63
2023-04-17T00:28:43.398Z,3.78
2023-04-17T00:31:10.128Z,2.78
2023-04-17T00:33:37.176Z,2.00
2023-04-17T00:36:04.467Z,2.28
2023-04-17T00:38:31.190Z,2.42
2023-04-17T00:40:58.071Z,2.28
2023-04-17T00:43:33.642Z,2.58
2023-04-17T00:46:01.545Z,2.42
2023-04-17T00:48:28.804Z,2.58
2023-04-17T00:50:55.999Z,1.83
2023-04-17T00:53:23.058Z,1.63
2023-04-17T00:55:51.218Z,1.67
2023-04-17T00:58:18.743Z,1.80
2023-04-17T01:00:45.741Z,2.38
2023-04-17T01:03:13.006Z,2.60
2023-04-17T01:05:40.886Z,3.00
2023-04-17T01:08:07.768Z,3.75
2023-04-17T01:10:34.709Z,3.20
2023-04-17T01:13:03.842Z,2.92
2023-04-17T01:15:30.818Z,2.97
2023-04-17T01:17:57.994Z,2.90
2023-04-17T01:20:25.344Z,3.15
2023-04-17T01:22:52.338Z,2.97
2023-04-17T01:25:19.870Z,4.47
2023-04-17T01:27:46.993Z,3.92
2023-04-17T01:30:14.305Z,4.13
2023-04-17T01:32:41.482Z,4.38
2023-04-17T01:35:09.470Z,4.13
2023-04-17T01:37:37.154Z,4.35
2023-04-17T01:40:06.906Z,4.50
2023-04-17T01:42:34.714Z,3.65
2023-04-17T01:45:03.229Z,4.00
2023-04-17T01:47:31.131Z,3.67
2023-04-17T01:49:58.072Z,3.95
2023-04-17T01:52:24.803Z,2.90
2023-04-17T01:54:51.575Z,2.83
2023-04-17T01:57:18.411Z,2.50
2023-04-17T01:59:45.416Z,2.55
2023-04-17T02:02:12.435Z,3.15
2023-04-17T02:04:39.379Z,3.67
2023-04-17T02:07:06.758Z,3.05
2023-04-17T02:09:33.856Z,3.60
2023-04-17T02:12:00.955Z,3.90
2023-04-17T02:14:31.184Z,3.42
2023-04-17T02:16:58.210Z,4.22
2023-04-17T02:19:26.511Z,4.03
2023-04-17T02:21:53.388Z,4.80
2023-04-17T02:24:20.701Z,3.83
2023-04-17T02:26:47.667Z,5.13
2023-04-17T02:29:15.985Z,4.30
2023-04-17T02:31:42.783Z,3.63
2023-04-17T02:34:09.941Z,4.45
2023-04-17T02:36:36.693Z,4.70
2023-04-17T02:39:03.867Z,4.28
2023-04-17T02:41:31.038Z,4.50
2023-04-17T02:44:01.105Z,4.60
2023-04-17T02:46:27.875Z,5.93
2023-04-17T02:48:54.863Z,6.30
2023-04-17T02:51:21.609Z,6.72
2023-04-17T02:53:49.182Z,6.18
2023-04-17T02:56:16.061Z,6.07
2023-04-17T02:58:44.907Z,5.80
2023-04-17T03:01:11.919Z,5.95
2023-04-17T03:03:41.961Z,5.32
2023-04-17T03:06:09.867Z,5.13
2023-04-17T03:08:38.829Z,5.35
2023-04-17T03:11:06.571Z,5.50
2023-04-17T03:13:36.912Z,5.40
2023-04-17T03:16:04.813Z,5.60
2023-04-17T03:18:32.253Z,5.75
2023-04-17T03:20:59.040Z,6.20
2023-04-17T03:23:25.814Z,6.65
2023-04-17T03:25:53.259Z,6.63
2023-04-17T03:28:21.920Z,5.63
2023-04-17T03:30:49.407Z,5.60
2023-04-17T03:33:17.182Z,6.10
2023-04-17T03:35:46.148Z,5.55
2023-04-17T03:38:12.895Z,6.25
2023-04-17T03:40:39.667Z,5.95
2023-04-17T03:43:06.585Z,6.18
2023-04-17T03:45:33.431Z,5.75
2023-04-17T03:48:00.476Z,5.78
2023-04-17T03:50:27.292Z,6.53
2023-04-17T03:52:54.047Z,6.30
2023-04-17T03:55:20.917Z,6.60
2023-04-17T03:57:49.754Z,6.20
2023-04-17T04:00:17.692Z,7.57
2023-04-17T04:02:44.529Z,5.90
2023-04-17T04:05:11.380Z,6.30
2023-04-17T04:07:38.139Z,5.78
2023-04-17T04:10:05.267Z,5.13
2023-04-17T04:12:32.059Z,5.57
2023-04-17T04:14:59.146Z,6.30
2023-04-17T04:17:26.085Z,5.60
2023-04-17T04:19:52.884Z,6.50
2023-04-17T04:22:21.265Z,6.28
2023-04-17T04:24:48.117Z,6.32
2023-04-17T04:27:18.106Z,6.28
2023-04-17T04:29:45.603Z,6.20
2023-04-17T04:32:13.672Z,6.32
2023-04-17T04:34:41.912Z,6.78
2023-04-17T04:37:08.936Z,6.60
2023-04-17T04:39:37.966Z,7.15
2023-04-17T04:42:05.854Z,6.60
2023-04-17T04:44:33.114Z,6.95
2023-04-17T04:46:59.907Z,6.43
2023-04-17T04:49:27.296Z,6.13
2023-04-17T04:51:54.203Z,6.65
2023-04-17T04:54:21.107Z,6.22
2023-04-17T04:56:47.818Z,6.63
2023-04-17T04:59:14.541Z,6.07
2023-04-17T05:01:41.383Z,5.78
2023-04-17T05:04:08.251Z,6.55
2023-04-17T05:06:35.343Z,6.75
2023-04-17T05:09:02.152Z,6.97
2023-04-17T05:11:29.601Z,6.60
2023-04-17T05:13:56.343Z,6.53
2023-04-17T05:16:23.081Z,6.40
2023-04-17T05:18:49.888Z,7.78
2023-04-17T05:21:16.760Z,7.10
2023-04-17T05:23:43.927Z,9.60
2023-04-17T05:26:10.841Z,10.20
2023-04-17T05:28:37.591Z,9.02
2023-04-17T05:31:04.650Z,9.02
2023-04-17T05:33:31.410Z,8.98
2023-04-17T05:35:58.216Z,10.30
2023-04-17T05:38:24.966Z,9.88
2023-04-17T05:40:53.148Z,9.60
2023-04-17T05:43:19.892Z,9.10
2023-04-17T05:45:47.600Z,8.40
2023-04-17T05:48:14.523Z,8.63
2023-04-17T05:50:41.396Z,15.15
2023-04-17T05:53:08.648Z,11.23
2023-04-17T05:55:35.420Z,10.90
2023-04-17T05:58:10.557Z,11.00
2023-04-17T06:00:49.684Z,9.68
2023-04-17T06:03:18.191Z,10.25
2023-04-17T06:05:47.049Z,8.75
2023-04-17T06:08:14.331Z,8.00
2023-04-17T06:10:41.625Z,10.63
2023-04-17T06:13:09.127Z,9.50
2023-04-17T06:15:36.482Z,9.80
2023-04-17T06:18:03.325Z,7.78
2023-04-17T06:20:30.538Z,9.63
2023-04-17T06:22:57.378Z,7.03
2023-04-17T06:25:24.262Z,7.22
2023-04-17T06:27:51.229Z,6.30
2023-04-17T06:30:18.645Z,5.05
2023-04-17T06:32:45.423Z,6.70
2023-04-17T06:35:12.457Z,6.22
2023-04-17T06:37:39.450Z,8.68
2023-04-17T06:40:07.954Z,8.90
2023-04-17T06:42:35.401Z,9.57
2023-04-17T06:45:03.545Z,8.80
2023-04-17T06:47:30.953Z,7.90
2023-04-17T06:49:59.750Z,8.25
2023-04-17T06:52:26.806Z,8.77
2023-04-17T06:54:54.701Z,9.50
2023-04-17T06:57:22.156Z,9.10
2023-04-17T06:59:50.345Z,8.73
2023-04-17T07:02:17.624Z,9.38
2023-04-17T07:04:44.547Z,9.60
2023-04-17T07:07:11.735Z,9.38
2023-04-17T07:09:38.622Z,8.77
2023-04-17T07:12:05.496Z,9.18
2023-04-17T07:14:33.425Z,8.35
2023-04-17T07:17:00.567Z,7.72
2023-04-17T07:19:27.494Z,7.90
2023-04-17T07:21:54.483Z,7.80
2023-04-17T07:24:21.211Z,8.20
2023-04-17T07:26:49.456Z,7.10
2023-04-17T07:29:16.182Z,7.32
2023-04-17T07:31:43.168Z,7.35
2023-04-17T07:34:10.156Z,7.45
2023-04-17T07:36:37.119Z,7.38
2023-04-17T07:39:04.010Z,8.55
2023-04-17T07:41:30.718Z,8.15
2023-04-17T07:43:59.072Z,8.88
2023-04-17T07:46:26.105Z,8.90
2023-04-17T07:48:52.945Z,8.52
2023-04-17T07:51:19.709Z,9.80
2023-04-17T07:53:46.463Z,9.95
2023-04-17T07:56:13.798Z,9.73
2023-04-17T07:58:41.992Z,9.25
2023-04-17T08:01:08.954Z,7.95
2023-04-17T08:03:36.007Z,8.27
2023-04-17T08:06:03.111Z,7.13
2023-04-17T08:08:30.569Z,8.23
2023-04-17T08:10:58.050Z,8.38
2023-04-17T08:13:24.935Z,7.20
2023-04-17T08:15:52.119Z,7.15
2023-04-17T08:18:18.875Z,7.20
2023-04-17T08:20:45.650Z,6.32
2023-04-17T08:23:12.559Z,6.63
2023-04-17T08:25:39.728Z,6.57
2023-04-17T08:28:06.482Z,6.07
2023-04-17T08:30:33.765Z,4.93
2023-04-17T08:33:00.609Z,4.85
2023-04-17T08:35:27.395Z,5.85
2023-04-17T08:37:58.681Z,4.55
2023-04-17T08:40:26.444Z,4.78
2023-04-17T08:42:54.235Z,4.80
2023-04-17T08:45:24.163Z,4.75
2023-04-17T08:47:51.128Z,4.32
2023-04-17T08:50:19.917Z,4.45
2023-04-17T08:52:48.972Z,4.80
2023-04-17T08:55:18.746Z,4.90
2023-04-17T08:58:06.131Z,4.07
2023-04-17T09:00:35.739Z,3.90
2023-04-17T09:03:04.521Z,3.90
2023-04-17T09:05:38.509Z,3.85
2023-04-17T09:08:17.195Z,2.53
2023-04-17T09:10:49.564Z,2.58
2023-04-17T09:13:19.419Z,2.80
2023-04-17T09:15:48.122Z,2.97
2023-04-17T09:18:24.819Z,2.20
2023-04-17T09:20:52.329Z,2.53
2023-04-17T09:23:22.617Z,2.60
2023-04-17T09:26:09.736Z,2.20
2023-04-17T09:28:39.488Z,2.17
2023-04-17T09:31:18.503Z,2.20
2023-04-17T09:34:05.967Z,1.70
2023-04-17T09:36:34.621Z,1.52
2023-04-17T09:39:04.425Z,1.60
2023-04-17T09:41:39.298Z,1.55
2023-04-17T09:44:06.436Z,1.35
2023-04-17T09:46:38.056Z,1.13
2023-04-17T09:49:10.893Z,1.35
2023-04-17T09:51:38.733Z,1.50
2023-04-17T09:54:09.495Z,1.70
2023-04-17T09:56:37.834Z,1.58
2023-04-17T09:59:06.258Z,1.67
2023-04-17T10:01:34.315Z,1.70
2023-04-17T10:04:03.236Z,2.00
2023-04-17T10:06:34.867Z,1.73
2023-04-17T10:09:04.234Z,1.70
2023-04-17T10:11:36.163Z,1.75
2023-04-17T10:14:06.153Z,1.70
2023-04-17T10:16:37.486Z,1.95
2023-04-17T10:19:23.855Z,1.80
2023-04-17T10:22:15.421Z,1.60
2023-04-17T10:24:43.160Z,2.00
2023-04-17T10:27:33.189Z,2.30
2023-04-17T10:30:05.357Z,2.10
2023-04-17T10:32:34.261Z,2.10
2023-04-17T10:35:16.246Z,2.00
2023-04-17T10:37:51.780Z,2.00
2023-04-17T10:40:31.320Z,1.75
2023-04-17T10:43:22.285Z,2.25
2023-04-17T10:45:59.705Z,2.10
2023-04-17T10:48:36.558Z,1.77
2023-04-17T10:51:27.805Z,1.80
2023-04-17T10:53:57.621Z,2.17
2023-04-17T10:56:30.831Z,1.60
2023-04-17T10:59:12.281Z,1.75
2023-04-17T11:01:57.840Z,1.73
2023-04-17T11:04:29.828Z,1.60
2023-04-17T11:06:57.975Z,2.38
2023-04-17T11:09:27.889Z,2.22
2023-04-17T11:11:54.890Z,2.20
2023-04-17T11:14:23.076Z,2.38
2023-04-17T11:16:51.527Z,2.28
2023-04-17T11:19:24.188Z,2.10
2023-04-17T11:21:52.906Z,1.60
2023-04-17T11:24:27.591Z,2.15
2023-04-17T11:26:56.453Z,1.85
2023-04-17T11:29:24.551Z,1.70
2023-04-17T11:31:55.304Z,1.90
2023-04-17T11:34:22.339Z,2.03
2023-04-17T11:36:52.725Z,1.98
2023-04-17T11:39:21.156Z,1.73
2023-04-17T11:41:49.472Z,1.13
2023-04-17T11:44:18.254Z,1.20
2023-04-17T11:46:56.883Z,1.10
2023-04-17T11:49:31.786Z,1.40
2023-04-17T11:52:04.028Z,1.10
2023-04-17T11:54:39.054Z,1.10
2023-04-17T11:57:13.626Z,1.00
2023-04-17T11:59:42.334Z,1.30
2023-04-17T12:02:09.644Z,1.38
2023-04-17T12:04:38.210Z,1.17
2023-04-17T12:07:07.041Z,1.17
2023-04-17T12:09:35.001Z,0.90
2023-04-17T12:12:05.413Z,1.10
2023-04-17T12:14:32.606Z,0.90
2023-04-17T12:16:59.741Z,0.80
2023-04-17T12:19:27.937Z,0.77
2023-04-17T12:21:55.692Z,0.90
2023-04-17T12:24:24.789Z,0.77
2023-04-17T12:26:52.364Z,0.90
2023-04-17T12:29:26.465Z,0.70
2023-04-17T12:32:00.022Z,0.70
2023-04-17T12:34:28.031Z,0.82
2023-04-17T12:36:55.907Z,1.00
2023-04-17T12:39:25.623Z,0.80
2023-04-17T12:41:52.314Z,0.85
2023-04-17T12:44:21.268Z,1.00
2023-04-17T12:46:47.988Z,0.98
2023-04-17T12:49:15.678Z,0.90
2023-04-17T12:51:46.130Z,1.02
2023-04-17T12:54:15.394Z,1.00
2023-04-17T12:56:42.263Z,1.35
2023-04-17T12:59:10.288Z,0.98
2023-04-17T13:01:37.241Z,1.08
2023-04-17T13:04:05.320Z,1.00
2023-04-17T13:06:33.026Z,1.15
2023-04-17T13:08:59.981Z,0.82
2023-04-17T13:11:27.602Z,1.02
2023-04-17T13:13:55.220Z,0.85
2023-04-17T13:16:22.013Z,0.90
2023-04-17T13:18:48.962Z,0.80
2023-04-17T13:21:16.743Z,0.90
2023-04-17T13:23:43.776Z,0.70
2023-04-17T13:26:10.569Z,0.68
2023-04-17T13:28:38.166Z,0.88
2023-04-17T13:31:04.970Z,1.40
2023-04-17T13:33:31.739Z,0.80
2023-04-17T13:36:01.623Z,1.00
2023-04-17T13:38:30.358Z,1.00
2023-04-17T13:40:57.140Z,0.80
2023-04-17T13:43:24.385Z,0.75
2023-04-17T13:45:52.798Z,0.70
2023-04-17T13:48:21.457Z,0.70
2023-04-17T13:50:48.198Z,0.80
2023-04-17T13:53:15.391Z,0.80
2023-04-17T13:55:42.447Z,0.80
2023-04-17T13:58:09.826Z,0.65
2023-04-17T14:00:36.580Z,1.00
2023-04-17T14:03:04.809Z,0.77
2023-04-17T14:05:32.124Z,0.93
2023-04-17T14:07:58.962Z,0.80
2023-04-17T14:10:26.217Z,0.88
2023-04-17T14:12:52.947Z,0.70
2023-04-17T14:15:19.665Z,0.82
2023-04-17T14:17:46.451Z,0.90
2023-04-17T14:20:15.043Z,1.20
2023-04-17T14:22:41.944Z,1.00
2023-04-17T14:25:09.672Z,1.10
2023-04-17T14:27:36.978Z,1.23
2023-04-17T14:30:04.112Z,0.82
2023-04-17T14:32:31.906Z,1.00
2023-04-17T14:34:59.517Z,1.00
2023-04-17T14:37:26.896Z,0.90
2023-04-17T14:39:53.591Z,0.85
2023-04-17T14:42:20.511Z,1.10
2023-04-17T14:44:47.260Z,1.10
2023-04-17T14:47:14.113Z,1.30
2023-04-17T14:49:41.411Z,1.10
2023-04-17T14:52:08.385Z,1.17
2023-04-17T14:54:35.188Z,1.02
2023-04-17T14:57:02.093Z,1.10
2023-04-17T14:59:29.154Z,1.10
2023-04-17T15:01:56.180Z,1.40
2023-04-17T15:04:23.258Z,1.60
2023-04-17T15:06:51.665Z,1.40
2023-04-17T15:09:18.814Z,1.20
2023-04-17T15:11:47.271Z,1.40
2023-04-17T15:14:14.132Z,1.90
2023-04-17T15:16:41.337Z,1.30
2023-04-17T15:19:08.227Z,1.60
2023-04-17T15:21:35.085Z,1.10
2023-04-17T15:24:01.870Z,1.20
2023-04-17T15:26:28.909Z,1.10
2023-04-17T15:28:55.761Z,1.30
2023-04-17T15:31:22.932Z,1.10
2023-04-17T15:33:49.755Z,1.10
2023-04-17T15:36:16.704Z,0.98
2023-04-17T15:38:44.122Z,1.00
2023-04-17T15:41:11.142Z,1.00
2023-04-17T15:43:38.346Z,1.05
2023-04-17T15:46:05.350Z,0.90
2023-04-17T15:48:32.906Z,1.00
2023-04-17T15:51:02.382Z,0.90
2023-04-17T15:53:29.271Z,1.20
2023-04-17T15:55:56.273Z,1.42
2023-04-17T15:58:23.196Z,1.27
2023-04-17T16:00:50.065Z,1.50
2023-04-17T16:03:17.197Z,1.40
2023-04-17T16:05:44.191Z,1.40
2023-04-17T16:08:10.925Z,1.58
2023-04-17T16:10:37.706Z,1.00
2023-04-17T16:13:05.317Z,1.30
2023-04-17T16:15:32.123Z,1.60
2023-04-17T16:17:59.017Z,1.52
2023-04-17T16:20:27.266Z,1.70
2023-04-17T16:22:54.411Z,1.50
2023-04-17T16:25:21.565Z,1.27
2023-04-17T16:27:48.307Z,1.25
2023-04-17T16:30:15.063Z,1.60
2023-04-17T16:32:42.055Z,1.45
2023-04-17T16:35:09.227Z,1.35
2023-04-17T16:37:36.095Z,1.40
2023-04-17T16:40:04.938Z,1.35
2023-04-17T16:42:32.743Z,1.40
2023-04-17T16:44:59.834Z,1.60
2023-04-17T16:47:29.345Z,1.25
2023-04-17T16:49:56.856Z,1.73
2023-04-17T16:52:23.594Z,1.48
2023-04-17T16:54:50.368Z,1.45
2023-04-17T16:57:17.728Z,1.70
2023-04-17T16:59:44.430Z,3.90
2023-04-17T17:02:11.280Z,2.08
2023-04-17T17:04:38.133Z,2.72
2023-04-17T17:07:05.036Z,3.15
2023-04-17T17:09:32.446Z,3.03
2023-04-17T17:11:59.164Z,3.88
2023-04-17T17:14:26.084Z,3.88
2023-04-17T17:16:53.340Z,2.88
2023-04-17T17:19:20.592Z,2.90
2023-04-17T17:21:47.345Z,2.70
2023-04-17T17:24:14.240Z,3.10
2023-04-17T17:26:41.573Z,3.00
2023-04-17T17:29:08.341Z,3.10
2023-04-17T17:31:35.430Z,3.00
2023-04-17T17:34:16.224Z,2.83
2023-04-17T17:36:49.358Z,2.72
2023-04-17T17:39:17.079Z,2.05
2023-04-17T17:41:45.862Z,2.72
2023-04-17T17:44:13.715Z,2.15
2023-04-17T17:46:40.681Z,2.30
2023-04-17T17:49:07.474Z,1.90
2023-04-17T17:51:34.278Z,2.20
2023-04-17T17:54:01.712Z,2.35
2023-04-17T17:56:28.880Z,2.10
2023-04-17T17:58:55.792Z,2.40
2023-04-17T18:01:24.715Z,2.17
2023-04-17T18:03:51.894Z,2.35
2023-04-17T18:06:19.221Z,2.28
2023-04-17T18:08:46.772Z,2.20
2023-04-17T18:11:13.805Z,2.80
2023-04-17T18:13:40.667Z,2.80
2023-04-17T18:16:07.888Z,2.55
2023-04-17T18:18:34.720Z,2.33
2023-04-17T18:21:06.957Z,2.60
2023-04-17T18:23:34.133Z,5.00
2023-04-17T18:26:03.186Z,3.80
2023-04-17T18:28:30.283Z,5.05
2023-04-17T18:30:57.174Z,4.28
2023-04-17T18:33:24.706Z,4.40
2023-04-17T18:35:51.850Z,3.90
2023-04-17T18:38:18.810Z,4.20
2023-04-17T18:40:45.607Z,3.30
2023-04-17T18:43:12.371Z,2.90
2023-04-17T18:45:39.143Z,3.30
2023-04-17T18:48:06.231Z,3.10
2023-04-17T18:50:33.495Z,3.10
2023-04-17T18:53:00.668Z,4.07
2023-04-17T18:55:27.653Z,4.85
2023-04-17T18:57:54.911Z,4.00
2023-04-17T19:00:22.295Z,3.20
2023-04-17T19:02:49.152Z,3.30
2023-04-17T19:05:16.430Z,3.38
2023-04-17T19:07:43.243Z,3.22
2023-04-17T19:10:11.206Z,3.33
2023-04-17T19:12:39.264Z,2.80
2023-04-17T19:15:06.937Z,3.15
2023-04-17T19:17:36.876Z,3.22
2023-04-17T19:20:05.192Z,4.10
2023-04-17T19:22:33.445Z,3.95
2023-04-17T19:25:00.592Z,4.53
2023-04-17T19:27:27.483Z,4.43
2023-04-17T19:29:54.535Z,4.15
2023-04-17T19:32:21.490Z,4.82
2023-04-17T19:34:48.308Z,5.28
2023-04-17T19:37:15.078Z,5.43
2023-04-17T19:39:42.352Z,5.97
2023-04-17T19:42:09.382Z,7.22
2023-04-17T19:44:37.230Z,7.07
2023-04-17T19:47:04.454Z,7.30
2023-04-17T19:49:31.537Z,7.95
2023-04-17T19:52:00.767Z,8.30
2023-04-17T19:54:27.553Z,8.40
2023-04-17T19:56:54.375Z,7.68
2023-04-17T19:59:21.109Z,7.90
2023-04-17T20:01:48.776Z,8.40
2023-04-17T20:04:16.642Z,7.53
2023-04-17T20:06:44.094Z,7.38
2023-04-17T20:09:13.199Z,8.70
2023-04-17T20:11:41.286Z,8.15
2023-04-17T20:14:08.815Z,7.97
2023-04-17T20:16:36.056Z,8.40
2023-04-17T20:19:02.950Z,8.43
2023-04-17T20:21:30.320Z,9.57
2023-04-17T20:23:57.704Z,8.98
2023-04-17T20:26:24.484Z,9.50
2023-04-17T20:28:51.240Z,9.82
2023-04-17T20:31:18.067Z,10.10
2023-04-17T20:33:44.875Z,10.45
2023-04-17T20:36:12.562Z,9.95
2023-04-17T20:38:39.514Z,9.68
2023-04-17T20:41:07.106Z,11.02
2023-04-17T20:43:34.006Z,10.45
2023-04-17T20:46:01.751Z,11.05
2023-04-17T20:48:29.060Z,11.27
2023-04-17T20:50:56.048Z,10.05
2023-04-17T20:53:22.792Z,11.27
2023-04-17T20:55:49.948Z,10.23
2023-04-17T20:58:16.721Z,10.63
2023-04-17T21:00:54.469Z,11.75
2023-04-17T21:03:30.795Z,11.32
2023-04-17T21:05:59.216Z,10.52
2023-04-17T21:08:26.681Z,10.60
2023-04-17T21:10:54.361Z,11.48
2023-04-17T21:13:21.996Z,10.43
2023-04-17T21:15:49.611Z,11.25
2023-04-17T21:18:16.364Z,11.25
2023-04-17T21:20:43.236Z,11.05
2023-04-17T21:23:10.895Z,10.98
2023-04-17T21:25:39.003Z,10.15
2023-04-17T21:28:05.790Z,10.70
2023-04-17T21:30:32.646Z,10.25
2023-04-17T21:32:59.466Z,11.30
2023-04-17T21:35:27.088Z,11.13
2023-04-17T21:37:53.989Z,10.95
2023-04-17T21:40:20.774Z,11.25
2023-04-17T21:42:47.476Z,10.52
2023-04-17T21:45:14.719Z,11.18
2023-04-17T21:47:41.509Z,12.15
2023-04-17T21:50:09.567Z,12.63
2023-04-17T21:52:36.466Z,11.05
2023-04-17T21:55:05.290Z,11.68
2023-04-17T21:57:32.271Z,11.45
2023-04-17T21:59:59.197Z,11.32
2023-04-17T22:02:26.795Z,10.95
2023-04-17T22:04:53.933Z,11.32
2023-04-17T22:07:21.533Z,11.32
2023-04-17T22:09:48.908Z,11.55
2023-04-17T22:12:22.942Z,11.32
2023-04-17T22:14:49.658Z,10.85
2023-04-17T22:17:17.249Z,11.73
2023-04-17T22:19:43.989Z,11.23
2023-04-17T22:22:10.964Z,11.73
2023-04-17T22:24:37.710Z,11.48
2023-04-17T22:27:04.416Z,12.18
2023-04-17T22:29:31.228Z,12.32
2023-04-17T22:31:58.158Z,11.57
2023-04-17T22:34:25.008Z,12.25
2023-04-17T22:36:51.711Z,10.52
2023-04-17T22:39:18.448Z,10.90
2023-04-17T22:41:45.165Z,11.13
2023-04-17T22:44:13.630Z,11.60
2023-04-17T22:46:40.820Z,10.30
2023-04-17T22:49:07.686Z,12.13
2023-04-17T22:51:35.171Z,12.25
2023-04-17T22:54:11.535Z,12.40
2023-04-17T22:56:42.605Z,12.30
2023-04-17T22:59:10.677Z,11.98
2023-04-17T23:01:37.895Z,12.00
2023-04-17T23:04:05.193Z,11.85
2023-04-17T23:06:32.236Z,11.57
2023-04-17T23:08:59.622Z,11.48
2023-04-17T23:11:26.358Z,12.43
2023-04-17T23:13:53.194Z,11.95
2023-04-17T23:16:19.986Z,12.25
2023-04-17T23:18:47.263Z,12.15
2023-04-17T23:21:14.242Z,11.13
2023-04-17T23:23:41.648Z,12.02
2023-04-17T23:26:09.043Z,11.50
2023-04-17T23:28:35.744Z,11.82
2023-04-17T23:31:06.477Z,12.25
2023-04-17T23:33:34.986Z,12.10
2023-04-17T23:36:02.340Z,12.82
2023-04-17T23:38:29.307Z,12.40
2023-04-17T23:40:56.411Z,12.00
2023-04-17T23:43:23.328Z,12.70
2023-04-17T23:45:50.742Z,12.70
2023-04-17T23:48:18.373Z,13.48
2023-04-17T23:50:45.366Z,13.65
2023-04-17T23:53:13.522Z,11.85
2023-04-17T23:55:40.723Z,13.00
2023-04-17T23:58:07.538Z,12.65
